Time;durP1;ratioP1;P1;durP2;ratioP2;P2;SDS_P1;SDS_P2;PMS_P1;PMS_P2;Temp;Humidity;BMP_temperature;BMP_pressure;BME280_temperature;BME280_humidity;BME280_pressure;Samples;Min_cycle;Max_cycle;Signal;HPM_P1;HPM_P2
2021/12/16 00:09:10;;;;;;;6.80;5.03;;;8.30;99.90;7.50;100917;;;;564542;246;24116;-76
2021/12/16 00:19:36;;;;;;;9.03;4.90;;;8.30;99.90;7.50;100912;;;;576283;246;24087;-77
2021/12/16 00:33:31;;;;;;;8.20;6.20;;;8.40;99.90;7.60;100926;;;;584341;241;24096;-77
2021/12/16 00:35:45;;;;;;;6.80;5.57;;;8.40;99.90;7.60;100925;;;;583781;241;24136;-77
2021/12/16 00:38:13;;;;;;;8.77;5.67;;;8.40;99.90;7.60;100915;;;;585106;244;24131;-78
2021/12/16 00:40:42;;;;;;;8.53;5.47;;;8.40;99.90;7.60;100920;;;;566032;250;24137;-74
2021/12/16 00:43:18;;;;;;;8.53;5.83;;;8.40;99.90;7.60;100899;;;;566425;249;24110;-76
2021/12/16 00:46:34;;;;;;;6.97;4.20;;;8.40;99.90;7.60;100891;;;;566023;250;24202;-76
2021/12/16 00:55:59;;;;;;;7.73;5.73;;;8.40;99.90;7.50;100909;;;;575113;246;24079;-75
2021/12/16 00:58:28;;;;;;;8.67;6.30;;;8.40;99.90;7.60;100902;;;;573452;246;24092;-75
2021/12/16 01:01:28;;;;;;;6.73;4.77;;;8.40;99.90;7.50;100906;;;;574662;246;24085;-76
2021/12/16 01:03:31;;;;;;;11.97;8.00;;;8.30;99.90;7.50;100910;;;;577120;244;24123;-76
2021/12/16 01:06:13;;;;;;;11.53;8.37;;;8.30;99.90;7.50;100902;;;;574720;246;24118;-76
2021/12/16 01:36:09;;;;;;;7.50;4.77;;;8.30;99.90;7.50;100916;;;;599296;238;24076;-77
2021/12/16 01:49:15;;;;;;;11.13;6.73;;;8.30;99.90;7.40;100917;;;;582412;246;24108;-76
2021/12/16 01:51:51;;;;;;;13.30;8.57;;;8.30;99.90;7.40;100917;;;;583707;242;24133;-75
2021/12/16 01:56:59;;;;;;;11.87;7.17;;;8.30;99.90;7.40;100911;;;;584743;243;24061;-76
2021/12/16 01:59:21;;;;;;;14.43;9.50;;;8.20;99.90;7.40;100916;;;;577960;243;24102;-76
2021/12/16 02:01:52;;;;;;;10.93;8.40;;;8.30;99.90;7.40;100909;;;;567982;247;24121;-76
2021/12/16 02:04:29;;;;;;;10.17;7.40;;;8.20;99.90;7.40;100905;;;;555603;254;24222;-76
2021/12/16 02:07:10;;;;;;;9.30;7.57;;;8.20;99.90;7.40;100914;;;;565088;250;24147;-75
2021/12/16 02:09:44;;;;;;;13.73;8.07;;;8.20;99.90;7.40;100908;;;;557827;253;24202;-76
2021/12/16 02:12:18;;;;;;;11.03;7.13;;;8.20;99.90;7.40;100908;;;;554967;254;24148;-76
2021/12/16 02:34:20;;;;;;;5.23;4.70;;;8.20;99.90;7.40;100939;;;;575344;245;24109;-76
2021/12/16 02:36:31;;;;;;;8.77;5.13;;;8.20;99.90;7.30;100940;;;;581344;245;24149;-78
2021/12/16 02:38:51;;;;;;;6.67;5.07;;;8.20;99.90;7.30;100933;;;;574045;241;24097;-76
2021/12/16 02:41:22;;;;;;;6.47;4.60;;;8.10;99.90;7.30;100955;;;;578422;246;24163;-78
2021/12/16 02:48:47;;;;;;;8.47;5.13;;;8.10;99.90;7.30;100960;;;;566840;246;24126;-77
2021/12/16 02:51:20;;;;;;;7.07;4.67;;;8.10;99.90;7.20;100954;;;;574227;246;25184;-75
2021/12/16 02:53:49;;;;;;;4.27;3.50;;;8.00;99.90;7.20;100950;;;;583521;242;24122;-74
2021/12/16 02:56:17;;;;;;;7.00;4.00;;;8.00;99.90;7.20;100950;;;;595139;236;24044;-77
2021/12/16 02:58:45;;;;;;;6.13;3.80;;;8.00;99.90;7.20;100936;;;;593471;235;24106;-77
2021/12/16 03:01:18;;;;;;;7.20;3.70;;;8.00;99.90;7.20;100939;;;;582110;243;24073;-77
2021/12/16 03:03:46;;;;;;;6.90;4.17;;;8.00;99.90;7.20;100927;;;;581118;243;24086;-78
2021/12/16 03:06:14;;;;;;;5.33;4.43;;;8.00;99.90;7.20;100926;;;;581913;243;24122;-77
2021/12/16 03:08:42;;;;;;;6.23;3.43;;;8.00;99.90;7.20;100918;;;;581566;243;24087;-76
2021/12/16 03:14:20;;;;;;;4.00;3.53;;;8.00;99.90;7.10;100918;;;;584029;246;24171;-76
2021/12/16 03:22:01;;;;;;;3.73;3.17;;;8.00;99.90;7.10;100909;;;;576617;246;24055;-76
2021/12/16 03:25:08;;;;;;;4.80;3.53;;;8.00;99.90;7.10;100915;;;;574697;246;24054;-75
2021/12/16 03:35:24;;;;;;;4.03;2.80;;;7.90;99.90;7.10;100920;;;;578876;240;24024;-76
2021/12/16 03:37:28;;;;;;;4.37;3.10;;;7.90;99.90;7.10;100919;;;;581961;241;24035;-76
2021/12/16 03:40:05;;;;;;;2.57;2.37;;;7.90;99.90;7.10;100913;;;;586694;243;24059;-75
2021/12/16 03:42:36;;;;;;;2.53;2.40;;;7.90;99.90;7.10;100940;;;;581980;243;24133;-78
2021/12/16 03:48:13;;;;;;;2.23;2.07;;;7.90;99.90;7.10;100943;;;;582689;243;24068;-76
2021/12/16 03:50:41;;;;;;;4.20;2.60;;;7.90;99.90;7.10;100930;;;;581994;243;24097;-78
2021/12/16 03:53:13;;;;;;;3.47;3.07;;;7.90;99.90;7.10;100944;;;;582299;243;24054;-77
2021/12/16 03:55:38;;;;;;;2.40;2.17;;;7.90;99.90;7.10;100949;;;;582020;243;24078;-77
2021/12/16 03:58:06;;;;;;;2.67;2.47;;;7.90;99.90;7.10;100944;;;;584813;243;24061;-77
2021/12/16 04:00:34;;;;;;;3.37;3.07;;;7.90;99.90;7.10;100944;;;;575511;243;35120;-77
2021/12/16 04:03:01;;;;;;;4.50;3.47;;;7.90;99.90;7.10;100945;;;;576841;243;35107;-77
2021/12/16 04:05:29;;;;;;;4.70;3.87;;;8.00;99.90;7.20;100940;;;;577247;243;35081;-78
2021/12/16 04:08:01;;;;;;;3.50;3.00;;;8.00;99.90;7.20;100951;;;;581704;242;24175;-77
2021/12/16 04:10:31;;;;;;;3.00;2.67;;;8.00;99.90;7.20;100965;;;;583537;242;24081;-76
2021/12/16 04:12:54;;;;;;;3.77;2.03;;;8.00;99.90;7.20;100965;;;;583048;242;24072;-76
2021/12/16 04:15:22;;;;;;;4.50;2.97;;;8.00;99.90;7.10;100964;;;;581562;242;25168;-76
2021/12/16 04:17:50;;;;;;;3.27;2.97;;;7.90;99.90;7.10;100956;;;;581376;241;24042;-78
2021/12/16 04:20:18;;;;;;;2.47;2.00;;;7.90;99.90;7.10;100980;;;;592284;238;24010;-76
2021/12/16 04:22:46;;;;;;;4.60;2.60;;;7.90;99.90;7.00;100983;;;;595153;241;24038;-77
2021/12/16 04:25:14;;;;;;;2.87;2.57;;;7.90;99.90;7.00;100976;;;;578941;243;24092;-75
2021/12/16 04:27:42;;;;;;;3.30;2.10;;;7.90;99.90;7.10;100971;;;;565186;250;24176;-76
2021/12/16 04:30:10;;;;;;;3.63;2.33;;;7.90;99.90;7.00;100964;;;;565104;250;24113;-76
2021/12/16 04:32:38;;;;;;;4.00;2.47;;;7.90;99.90;7.10;100971;;;;566707;245;24224;-76
2021/12/16 04:35:06;;;;;;;2.00;1.83;;;7.90;99.90;7.10;100975;;;;574691;246;24091;-76
2021/12/16 04:37:34;;;;;;;4.27;2.50;;;7.90;99.90;7.00;100965;;;;572414;250;24066;-76
2021/12/16 04:40:02;;;;;;;2.50;2.17;;;7.90;99.90;7.00;100980;;;;568608;250;24154;-74
2021/12/16 04:42:30;;;;;;;2.83;2.40;;;7.90;99.90;7.00;100968;;;;555210;254;24139;-76
2021/12/16 04:45:00;;;;;;;3.33;2.90;;;7.90;99.90;7.00;100957;;;;571227;245;24115;-76
2021/12/16 04:47:29;;;;;;;2.73;2.23;;;7.90;99.90;7.10;100947;;;;583956;245;24150;-77
2021/12/16 04:49:53;;;;;;;2.50;2.30;;;7.90;99.90;7.10;100936;;;;572298;247;24109;-76
2021/12/16 04:52:21;;;;;;;2.93;2.03;;;7.90;99.90;7.10;100952;;;;592930;241;24058;-77
2021/12/16 04:54:49;;;;;;;4.50;2.27;;;7.90;99.90;7.10;100947;;;;585010;241;24070;-77
2021/12/16 04:57:20;;;;;;;2.83;2.13;;;7.90;99.90;7.10;100951;;;;582079;245;24041;-76
2021/12/16 04:59:48;;;;;;;2.43;2.13;;;7.90;99.90;7.10;100953;;;;576349;244;24182;-77
2021/12/16 05:02:13;;;;;;;4.73;2.67;;;7.90;99.90;7.10;100968;;;;576755;244;24101;-77
2021/12/16 05:04:41;;;;;;;3.70;2.87;;;7.90;99.90;7.10;100963;;;;574359;245;24102;-77
2021/12/16 05:07:09;;;;;;;3.17;2.80;;;7.90;99.90;7.10;100956;;;;585983;240;24094;-76
2021/12/16 05:12:07;;;;;;;5.73;3.13;;;8.00;99.90;7.10;100961;;;;577621;245;24066;-75
2021/12/16 05:14:35;;;;;;;1.73;1.63;;;8.00;99.90;7.10;100960;;;;577579;245;24072;-76
2021/12/16 05:17:10;;;;;;;3.80;2.50;;;8.00;99.90;7.10;100939;;;;577595;245;24073;-75
2021/12/16 05:19:32;;;;;;;2.27;2.10;;;8.00;99.90;7.10;100925;;;;577863;244;24088;-75
2021/12/16 05:24:15;;;;;;;2.73;2.43;;;8.00;99.90;7.10;100915;;;;578237;244;24066;-75
2021/12/16 05:24:28;;;;;;;4.43;2.53;;;8.00;99.90;7.10;100930;;;;576510;244;24065;-76
2021/12/16 05:26:58;;;;;;;2.90;2.40;;;8.00;99.90;7.10;100925;;;;577916;244;24076;-76
2021/12/16 05:29:29;;;;;;;1.93;1.70;;;8.00;99.90;7.10;100935;;;;577759;243;24097;-75
2021/12/16 05:31:54;;;;;;;2.70;2.30;;;8.00;99.90;7.10;100934;;;;580274;242;24073;-76
2021/12/16 05:34:22;;;;;;;2.10;2.00;;;7.90;99.90;7.10;100934;;;;566459;252;24136;-76
2021/12/16 05:36:54;;;;;;;2.10;1.87;;;7.90;99.90;7.10;100960;;;;559249;253;24121;-76
2021/12/16 05:39:18;;;;;;;2.83;2.53;;;7.90;99.90;7.10;100961;;;;559002;252;26330;-76
2021/12/16 05:41:46;;;;;;;2.60;2.40;;;7.90;99.90;7.10;100965;;;;559147;253;24164;-77
2021/12/16 05:44:16;;;;;;;2.73;2.53;;;7.90;99.90;7.10;100974;;;;559529;253;24160;-77
2021/12/16 05:46:41;;;;;;;2.37;1.77;;;7.90;99.90;7.10;100984;;;;567845;247;24131;-75
2021/12/16 05:49:09;;;;;;;3.90;2.13;;;8.00;99.90;7.10;101012;;;;559223;253;24121;-76
2021/12/16 05:51:37;;;;;;;2.23;2.07;;;8.00;99.90;7.10;101013;;;;559152;252;24125;-76
2021/12/16 05:54:05;;;;;;;6.40;2.47;;;8.00;99.90;7.10;101012;;;;559041;252;24153;-77
2021/12/16 05:56:33;;;;;;;5.23;2.43;;;8.00;99.90;7.20;101013;;;;558975;253;24165;-77
2021/12/16 05:59:01;;;;;;;4.03;3.10;;;8.00;99.90;7.10;101030;;;;558971;253;24156;-76
2021/12/16 06:01:30;;;;;;;3.23;2.70;;;8.00;99.90;7.10;101035;;;;561230;248;24061;-77
2021/12/16 06:03:57;;;;;;;5.20;2.93;;;8.00;99.90;7.20;101036;;;;568883;246;24214;-77
2021/12/16 06:06:25;;;;;;;2.70;2.33;;;8.00;99.90;7.20;101034;;;;568830;246;24164;-77
2021/12/16 06:08:54;;;;;;;3.40;2.63;;;8.00;99.90;7.20;101040;;;;569150;246;24130;-76
2021/12/16 06:11:24;;;;;;;3.47;3.03;;;8.00;99.90;7.20;101039;;;;577754;244;24126;-77
2021/12/16 06:14:05;;;;;;;2.40;2.20;;;8.00;99.90;7.20;101039;;;;569020;248;24101;-76
2021/12/16 06:27:33;;;;;;;3.10;2.80;;;7.90;99.90;7.10;101045;;;;557679;253;24102;-77
2021/12/16 06:29:59;;;;;;;2.77;2.47;;;7.90;99.90;7.10;101053;;;;564349;247;24101;-77
2021/12/16 06:32:27;;;;;;;2.97;2.33;;;7.90;99.90;7.10;101047;;;;571160;245;24170;-76
2021/12/16 06:34:55;;;;;;;4.37;2.30;;;7.90;99.90;7.00;101039;;;;580359;242;24102;-78
2021/12/16 06:37:23;;;;;;;3.83;3.07;;;7.80;99.90;7.00;101047;;;;569624;249;24135;-77
2021/12/16 06:39:54;;;;;;;2.57;2.30;;;7.80;99.90;7.00;101039;;;;578419;244;24062;-77
2021/12/16 06:42:19;;;;;;;2.83;1.97;;;7.80;99.90;6.90;101062;;;;578281;245;24063;-79
2021/12/16 06:44:53;;;;;;;1.90;1.60;;;7.80;99.90;6.90;101058;;;;589686;239;24024;-77
2021/12/16 06:47:20;;;;;;;1.67;1.57;;;7.70;99.90;6.90;101072;;;;578539;245;24104;-77
2021/12/16 06:49:45;;;;;;;1.57;1.47;;;7.70;99.90;6.90;101079;;;;571003;246;24109;-76
2021/12/16 06:52:14;;;;;;;2.13;1.87;;;7.70;99.90;6.90;101087;;;;572661;245;24094;-76
2021/12/16 06:54:54;;;;;;;3.03;1.80;;;7.80;99.90;6.90;101079;;;;567440;250;24128;-76
2021/12/16 07:00:28;;;;;;;4.43;2.55;;;7.80;99.90;6.90;101092;;;;579781;245;35310;-77
2021/12/16 07:05:06;;;;;;;1.97;1.83;;;7.80;99.90;6.90;101086;;;;565659;250;24122;-76
2021/12/16 07:07:34;;;;;;;4.03;2.27;;;7.70;99.90;6.90;101090;;;;575373;245;24206;-76
2021/12/16 07:10:02;;;;;;;2.37;2.03;;;7.70;99.90;6.80;101106;;;;566151;249;24097;-76
2021/12/16 07:12:46;;;;;;;2.00;1.50;;;7.70;99.90;6.90;101103;;;;564974;248;24097;-76
2021/12/16 07:14:58;;;;;;;1.80;1.40;;;7.70;99.90;6.90;101119;;;;571610;250;24130;-77
2021/12/16 07:17:26;;;;;;;5.27;1.30;;;7.70;99.90;6.90;101128;;;;577774;245;24182;-77
2021/12/16 07:19:54;;;;;;;2.47;1.00;;;7.80;99.90;6.90;101109;;;;589236;240;24081;-77
2021/12/16 07:22:21;;;;;;;2.63;2.00;;;7.70;99.90;6.90;101105;;;;578975;241;34787;-76
2021/12/16 07:24:49;;;;;;;2.72;1.80;;;7.70;99.90;6.80;101103;;;;569866;246;35001;-81
2021/12/16 07:27:18;;;;;;;2.90;1.83;;;7.70;99.90;6.80;101100;;;;569818;246;45888;-74
2021/12/16 07:29:46;;;;;;;3.00;1.70;;;7.70;99.90;6.80;101103;;;;580170;242;24067;-77
2021/12/16 07:32:14;;;;;;;5.93;1.67;;;7.70;99.90;6.70;101109;;;;575134;245;24136;-76
2021/12/16 07:34:42;;;;;;;1.67;1.40;;;7.60;99.90;6.70;101111;;;;585560;240;24033;-76
2021/12/16 07:37:10;;;;;;;3.50;1.77;;;7.60;99.90;6.70;101099;;;;589034;240;24028;-77
2021/12/16 07:39:40;;;;;;;4.33;1.80;;;7.60;99.90;6.70;101093;;;;589176;240;24024;-75
2021/12/16 07:42:05;;;;;;;4.20;1.87;;;7.60;99.90;6.70;101115;;;;589916;239;24054;-75
2021/12/16 07:44:34;;;;;;;3.97;1.67;;;7.50;99.90;6.70;101106;;;;589686;239;24056;-75
2021/12/16 07:47:01;;;;;;;5.87;1.77;;;7.50;99.90;6.70;101093;;;;582965;242;24110;-77
2021/12/16 07:49:29;;;;;;;5.20;2.50;;;7.50;99.90;6.70;101103;;;;581657;244;24052;-77
2021/12/16 07:52:00;;;;;;;3.50;2.20;;;7.50;99.90;6.70;101118;;;;574644;245;24165;-76
2021/12/16 07:54:25;;;;;;;8.60;2.23;;;7.50;99.90;6.60;101112;;;;574812;245;24112;-75
2021/12/16 07:56:54;;;;;;;1.90;1.70;;;7.50;99.90;6.60;101110;;;;583728;245;24092;-77
2021/12/16 07:59:21;;;;;;;3.10;1.37;;;7.50;99.90;6.70;101099;;;;574476;245;24194;-75
2021/12/16 08:01:49;;;;;;;4.47;2.53;;;7.50;99.90;6.60;101096;;;;583526;240;24106;-78
2021/12/16 08:04:28;;;;;;;5.73;2.20;;;7.50;99.90;6.60;101102;;;;582470;241;24086;-76
2021/12/16 08:06:51;;;;;;;2.37;1.50;;;7.40;99.90;6.50;101095;;;;585358;237;24090;-75
2021/12/16 08:09:16;;;;;;;3.90;2.13;;;7.40;99.90;6.50;101085;;;;585042;241;24093;-74
2021/12/16 08:11:47;;;;;;;1.80;1.67;;;7.30;99.90;6.50;101082;;;;592397;241;25117;-77
2021/12/16 08:14:15;;;;;;;6.10;2.27;;;7.30;99.90;6.40;101087;;;;585817;241;24166;-76
2021/12/16 08:16:40;;;;;;;5.60;2.50;;;7.30;99.90;6.40;101086;;;;585267;241;24083;-78
2021/12/16 08:19:08;;;;;;;4.73;2.47;;;7.20;99.90;6.30;101089;;;;585122;241;24090;-75
2021/12/16 08:21:36;;;;;;;5.43;2.20;;;7.10;99.90;6.20;101083;;;;585255;241;24090;-75
2021/12/16 08:24:03;;;;;;;2.20;2.00;;;7.10;99.90;6.20;101076;;;;585312;241;24134;-76
2021/12/16 08:26:31;;;;;;;4.97;2.47;;;7.00;99.90;6.20;101078;;;;585039;241;24109;-77
2021/12/16 08:29:04;;;;;;;6.37;2.67;;;7.00;99.90;6.10;101077;;;;585129;241;24077;-77
2021/12/16 08:31:28;;;;;;;3.33;1.90;;;6.90;99.90;6.10;101064;;;;584961;241;24089;-77
2021/12/16 08:33:57;;;;;;;5.97;2.40;;;6.90;99.90;6.00;101065;;;;585330;241;24091;-76
2021/12/16 08:36:27;;;;;;;4.17;2.00;;;6.90;99.90;6.00;101082;;;;585123;241;24109;-78
2021/12/16 08:38:52;;;;;;;4.93;2.33;;;6.90;99.90;6.10;101086;;;;584813;241;24190;-76
2021/12/16 08:41:22;;;;;;;2.77;2.30;;;6.90;99.90;6.20;101084;;;;592080;241;24049;-77
2021/12/16 08:43:53;;;;;;;8.63;3.10;;;7.00;99.90;6.30;101095;;;;585141;241;24142;-76
2021/12/16 08:46:19;;;;;;;7.90;3.47;;;7.30;99.90;6.40;101107;;;;584970;241;24080;-77
2021/12/16 08:48:47;;;;;;;8.63;3.17;;;7.20;99.90;6.60;101117;;;;584899;241;24123;-77
2021/12/16 08:51:15;;;;;;;7.20;2.60;;;7.40;99.90;6.80;101127;;;;585137;241;24101;-77
2021/12/16 08:53:43;;;;;;;5.93;2.80;;;7.60;99.90;6.90;101124;;;;585995;241;24072;-76
2021/12/16 08:56:12;;;;;;;7.43;2.47;;;7.70;99.90;7.10;101112;;;;595564;241;24070;-76
2021/12/16 08:58:41;;;;;;;5.83;2.80;;;7.90;99.90;7.20;101114;;;;585914;241;24164;-76
2021/12/16 09:01:09;;;;;;;1.53;1.33;;;8.00;99.90;7.30;101103;;;;585621;241;24071;-76
2021/12/16 09:03:37;;;;;;;5.97;2.03;;;8.10;99.90;7.40;101118;;;;585701;241;24081;-76
2021/12/16 09:06:06;;;;;;;3.67;2.60;;;8.20;99.90;7.40;101115;;;;585884;241;24055;-76
2021/12/16 09:08:33;;;;;;;6.30;2.30;;;8.20;99.90;7.50;101126;;;;586422;241;24092;-75
2021/12/16 09:11:04;;;;;;;3.00;1.90;;;8.30;99.90;7.50;101137;;;;594965;241;24161;-75
2021/12/16 09:13:29;;;;;;;4.97;2.57;;;8.40;99.90;7.50;101139;;;;585674;241;24053;-76
2021/12/16 09:16:01;;;;;;;2.73;1.87;;;8.30;99.90;7.50;101128;;;;585814;241;24116;-76
2021/12/16 09:18:29;;;;;;;4.87;2.13;;;8.20;99.90;7.30;101117;;;;594980;238;24156;-75
2021/12/16 09:20:57;;;;;;;2.63;1.57;;;8.20;99.90;7.20;101132;;;;587744;239;24041;-76
2021/12/16 09:23:28;;;;;;;7.73;1.90;;;8.10;99.90;7.10;101115;;;;590424;239;24055;-75
2021/12/16 09:25:57;;;;;;;2.40;1.93;;;7.90;99.90;7.00;101116;;;;590534;239;25118;-76
2021/12/16 09:28:21;;;;;;;7.87;1.97;;;7.80;99.90;6.80;101109;;;;590775;239;24051;-75
2021/12/16 09:30:49;;;;;;;2.87;1.80;;;7.70;99.90;6.70;101112;;;;599730;238;24045;-76
2021/12/16 09:33:20;;;;;;;4.83;2.10;;;7.60;99.90;6.70;101119;;;;599975;238;24048;-77
2021/12/16 09:35:45;;;;;;;3.70;1.93;;;7.50;99.90;6.60;101125;;;;599247;240;25073;-76
2021/12/16 09:38:13;;;;;;;10.53;1.57;;;7.50;99.90;6.60;101130;;;;589808;238;25136;-77
2021/12/16 09:40:48;;;;;;;7.23;2.07;;;7.40;99.90;6.50;101128;;;;599891;238;24050;-77
2021/12/16 09:43:09;;;;;;;6.53;2.00;;;7.40;99.90;6.40;101120;;;;590143;240;24060;-76
2021/12/16 09:45:40;;;;;;;3.43;2.03;;;7.30;99.90;6.40;101121;;;;590045;240;24044;-76
2021/12/16 09:48:05;;;;;;;3.63;1.93;;;7.20;99.90;6.30;101112;;;;589172;240;24079;-76
2021/12/16 09:50:36;;;;;;;4.73;1.50;;;7.20;99.90;6.30;101095;;;;598810;238;24058;-76
2021/12/16 09:53:01;;;;;;;6.27;2.43;;;7.10;99.90;6.30;101110;;;;585379;240;24087;-75
2021/12/16 09:55:33;;;;;;;2.20;1.50;;;7.10;99.90;6.30;101117;;;;598833;240;24072;-76
2021/12/16 09:58:00;;;;;;;7.33;2.03;;;7.10;99.90;6.30;101102;;;;589194;240;24037;-74
2021/12/16 10:00:25;;;;;;;6.37;2.07;;;7.10;99.90;6.30;101106;;;;589519;240;24035;-77
2021/12/16 10:02:56;;;;;;;5.97;2.10;;;7.20;99.90;6.40;101116;;;;589469;240;24033;-75
2021/12/16 10:05:21;;;;;;;6.23;1.93;;;7.20;99.90;6.40;101114;;;;590279;239;24042;-75
2021/12/16 10:07:53;;;;;;;5.00;1.87;;;7.30;99.90;6.40;101120;;;;600176;238;24090;-75
2021/12/16 10:10:18;;;;;;;3.83;1.80;;;7.20;99.90;6.50;101101;;;;590171;239;24132;-76
2021/12/16 10:12:49;;;;;;;8.63;2.13;;;7.30;99.90;6.50;101104;;;;590236;239;24094;-76
2021/12/16 10:18:06;;;;;;;2.37;1.67;;;7.40;99.90;6.70;101107;;;;590556;239;24080;-77
2021/12/16 10:20:39;;;;;;;4.40;2.00;;;7.50;99.90;6.80;101110;;;;590031;234;24098;-75
2021/12/16 10:23:13;;;;;;;8.50;2.07;;;7.60;99.90;7.00;101112;;;;589873;239;24046;-77
2021/12/16 10:25:44;;;;;;;6.40;1.90;;;7.70;99.90;7.20;101107;;;;598949;239;24107;-76
2021/12/16 10:28:20;;;;;;;5.27;1.67;;;7.90;99.90;7.30;101116;;;;589922;239;24091;-78
2021/12/16 10:31:02;;;;;;;4.97;2.43;;;8.10;99.90;7.50;101114;;;;589741;239;24106;-77
2021/12/16 10:33:25;;;;;;;1.47;0.90;;;8.20;99.90;7.60;101123;;;;594941;239;24066;-76
2021/12/16 10:36:05;;;;;;;4.20;1.60;;;8.40;99.90;7.60;101128;;;;589691;239;24131;-77
2021/12/16 10:38:42;;;;;;;6.87;1.70;;;8.40;99.90;7.50;101117;;;;590070;238;24140;-76
2021/12/16 10:41:10;;;;;;;4.30;2.20;;;8.30;99.90;7.50;101114;;;;599501;239;24049;-79
2021/12/16 10:43:43;;;;;;;2.57;1.73;;;8.30;99.90;7.50;101100;;;;599531;238;24042;-79
2021/12/16 10:46:17;;;;;;;5.07;1.63;;;8.30;99.90;7.40;101094;;;;599366;238;24131;-78
2021/12/16 10:48:49;;;;;;;10.07;1.77;;;8.20;99.90;7.30;101103;;;;599365;238;24036;-77
2021/12/16 10:51:21;;;;;;;5.10;1.50;;;8.20;99.90;7.30;101110;;;;587842;240;24040;-80
2021/12/16 10:53:53;;;;;;;8.90;2.10;;;8.10;99.90;7.20;101118;;;;599258;238;25164;-77
2021/12/16 10:56:24;;;;;;;5.13;2.03;;;8.10;99.90;7.10;101102;;;;596323;234;24041;-78
2021/12/16 10:58:56;;;;;;;5.13;1.77;;;7.90;99.90;7.10;101109;;;;589335;240;24083;-80
2021/12/16 11:01:36;;;;;;;7.10;1.87;;;7.80;99.90;7.00;101115;;;;581881;239;24066;-78
2021/12/16 11:04:07;;;;;;;7.40;2.27;;;7.80;99.90;6.90;101109;;;;576817;245;24086;-80
2021/12/16 11:06:33;;;;;;;9.23;2.00;;;7.60;99.90;6.80;101100;;;;572723;245;24110;-77
2021/12/16 11:09:37;;;;;;;16.90;2.60;;;7.60;99.90;6.70;101103;;;;576489;244;24118;-78
2021/12/16 11:12:48;;;;;;;4.80;1.57;;;7.60;99.90;6.60;101096;;;;576910;245;24113;-78
2021/12/16 11:15:31;;;;;;;14.67;3.47;;;7.50;99.90;6.50;101089;;;;585821;245;24078;-77
2021/12/16 11:18:14;;;;;;;6.23;1.83;;;7.40;99.90;6.50;101087;;;;587530;243;24072;-82
2021/12/16 11:20:50;;;;;;;7.47;1.57;;;7.30;99.90;6.40;101091;;;;578015;243;24077;-78
2021/12/16 11:23:21;;;;;;;13.05;3.70;;;7.20;99.90;6.40;101107;;;;581508;241;35104;-77
2021/12/16 11:25:55;;;;;;;11.93;3.00;;;7.20;99.90;6.40;101121;;;;575032;245;24031;-78
2021/12/16 11:28:23;;;;;;;8.97;2.50;;;7.20;99.90;6.40;101138;;;;574620;246;24261;-77
2021/12/16 11:30:57;;;;;;;9.63;1.77;;;7.20;99.90;6.40;101144;;;;575117;246;24082;-76
2021/12/16 11:33:32;;;;;;;7.20;1.80;;;7.20;99.90;6.40;101146;;;;575192;246;24074;-78
2021/12/16 11:36:17;;;;;;;6.50;1.70;;;7.20;99.90;6.50;101155;;;;574219;245;24075;-75
2021/12/16 11:39:02;;;;;;;11.20;2.60;;;7.30;99.90;6.60;101159;;;;574722;246;24069;-76
2021/12/16 11:41:43;;;;;;;5.37;2.37;;;7.30;99.90;6.60;101169;;;;564873;250;24123;-77
2021/12/16 11:44:26;;;;;;;9.07;1.93;;;7.40;99.90;6.60;101162;;;;567338;250;24146;-76
2021/12/16 11:47:05;;;;;;;8.53;2.10;;;7.50;99.90;6.60;101186;;;;563455;254;24149;-77
2021/12/16 11:49:37;;;;;;;6.73;2.53;;;7.40;99.90;6.60;101183;;;;564200;250;25170;-76
2021/12/16 11:52:20;;;;;;;4.30;1.83;;;7.40;99.90;6.50;101178;;;;554659;255;24127;-79
2021/12/16 11:54:54;;;;;;;5.30;2.13;;;7.40;99.90;6.40;101185;;;;567480;248;24131;-77
2021/12/16 11:57:43;;;;;;;9.63;2.00;;;7.30;99.90;6.40;101192;;;;573213;246;24095;-77
2021/12/16 12:00:13;;;;;;;8.30;2.80;;;7.20;99.90;6.30;101186;;;;567027;250;24180;-77
2021/12/16 12:02:54;;;;;;;6.67;2.83;;;7.10;99.90;6.30;101178;;;;563231;248;24160;-76
2021/12/16 12:05:29;;;;;;;9.00;2.07;;;7.10;99.90;6.20;101165;;;;554979;254;24147;-76
2021/12/16 12:08:15;;;;;;;12.23;2.07;;;7.10;99.90;6.20;101166;;;;564546;250;25169;-76
2021/12/16 12:10:48;;;;;;;6.37;2.67;;;7.00;99.90;6.10;101169;;;;567844;250;24107;-77
2021/12/16 12:13:23;;;;;;;13.20;2.53;;;7.00;99.90;6.10;101164;;;;574798;250;24082;-77
2021/12/16 12:16:10;;;;;;;8.03;2.27;;;6.90;99.90;6.10;101146;;;;565292;250;24212;-77
2021/12/16 12:18:41;;;;;;;8.73;2.63;;;6.90;99.90;6.10;101121;;;;574844;250;24145;-75
2021/12/16 12:21:32;;;;;;;9.90;3.60;;;6.90;99.90;6.10;101135;;;;564263;250;24106;-78
2021/12/16 12:24:09;;;;;;;10.37;3.33;;;6.90;99.90;6.10;101131;;;;567562;250;24169;-79
2021/12/16 12:26:36;;;;;;;17.77;3.13;;;6.90;99.90;6.00;101143;;;;563125;251;24150;-78
2021/12/16 12:29:08;;;;;;;11.03;2.53;;;6.90;99.90;6.00;101145;;;;565496;250;24136;-79
2021/12/16 12:31:35;;;;;;;14.43;2.33;;;6.90;99.90;6.00;101142;;;;565606;249;24119;-77
2021/12/16 12:34:03;;;;;;;11.50;2.47;;;6.80;99.90;6.00;101152;;;;565532;250;24126;-78
2021/12/16 12:36:31;;;;;;;16.00;4.37;;;6.80;99.90;6.00;101154;;;;563895;254;24179;-76
2021/12/16 12:38:59;;;;;;;14.13;3.93;;;6.80;99.90;6.00;101154;;;;563009;251;24147;-76
2021/12/16 12:41:28;;;;;;;6.80;3.10;;;6.80;99.90;5.90;101163;;;;554900;254;24139;-77
2021/12/16 12:43:57;;;;;;;8.77;2.93;;;6.80;99.90;6.00;101172;;;;565332;250;24125;-76
2021/12/16 12:46:28;;;;;;;12.73;4.67;;;6.80;99.90;6.00;101191;;;;563768;253;24130;-76
2021/12/16 12:48:53;;;;;;;9.70;3.40;;;6.80;99.90;6.00;101187;;;;567033;250;24115;-77
2021/12/16 12:51:20;;;;;;;9.30;2.83;;;6.90;99.90;6.10;101183;;;;567315;245;24094;-78
2021/12/16 12:53:50;;;;;;;14.10;3.03;;;6.90;99.90;6.10;101182;;;;555145;254;24154;-78
2021/12/16 12:56:22;;;;;;;11.57;2.97;;;7.00;99.90;6.10;101179;;;;575105;246;24065;-78
2021/12/16 12:58:58;;;;;;;17.77;3.77;;;7.00;99.90;6.10;101173;;;;574039;246;24041;-78
2021/12/16 13:01:44;;;;;;;9.67;3.23;;;7.00;99.90;6.10;101174;;;;575332;246;24066;-79
2021/12/16 13:04:23;;;;;;;14.93;3.83;;;7.00;99.90;6.10;101164;;;;577979;246;24128;-76
2021/12/16 13:07:03;;;;;;;19.83;3.77;;;7.00;99.90;6.10;101168;;;;574995;246;24067;-78
2021/12/16 13:09:49;;;;;;;13.97;3.70;;;7.00;99.90;6.10;101162;;;;578129;246;24126;-79
2021/12/16 13:12:41;;;;;;;9.90;2.67;;;6.90;99.90;6.10;101163;;;;574526;246;24126;-77
2021/12/16 13:15:23;;;;;;;10.00;3.47;;;6.90;99.90;6.00;101170;;;;574370;246;25108;-77
2021/12/16 13:23:36;;;;;;;12.70;3.03;;;6.90;99.90;6.00;101170;;;;567353;249;24117;-77
2021/12/16 13:28:54;;;;;;;13.00;2.47;;;6.80;99.90;6.00;101164;;;;568291;245;24100;-77
2021/12/16 13:31:06;;;;;;;20.17;3.80;;;6.80;99.90;5.90;101169;;;;575187;245;24097;-77
2021/12/16 13:33:37;;;;;;;12.33;3.63;;;6.80;99.90;5.90;101159;;;;575636;245;24091;-76
2021/12/16 13:36:13;;;;;;;19.27;3.93;;;6.80;99.90;5.90;101150;;;;575833;245;24128;-76
2021/12/16 13:38:38;;;;;;;29.90;6.27;;;6.80;99.90;5.90;101153;;;;565190;250;24169;-77
2021/12/16 13:41:18;;;;;;;13.50;3.37;;;6.70;99.90;5.80;101151;;;;577478;245;24092;-77
2021/12/16 13:44:00;;;;;;;16.23;3.83;;;6.70;99.90;5.80;101149;;;;566558;249;24150;-76
2021/12/16 13:46:45;;;;;;;17.00;5.23;;;6.70;99.90;5.70;101153;;;;566378;249;24102;-77
2021/12/16 14:08:39;;;;;;;11.03;1.73;;;6.20;99.90;5.30;101196;;;;575762;244;24140;-76
2021/12/16 14:14:21;;;;;;;18.77;3.77;;;6.20;99.90;5.30;101191;;;;562801;254;25195;-76
2021/12/16 14:16:42;;;;;;;15.07;3.50;;;6.10;99.90;5.30;101200;;;;552367;254;24087;-76
2021/12/16 14:25:04;;;;;;;16.67;4.55;;;6.10;99.90;5.20;101216;;;;569223;250;35253;-77
2021/12/16 14:35:27;;;;;;;21.00;6.83;;;6.10;99.90;5.20;101226;;;;565688;250;24102;-79
2021/12/16 14:38:08;;;;;;;26.00;5.13;;;6.00;99.90;5.10;101246;;;;564376;250;24262;-78
2021/12/16 14:41:02;;;;;;;16.67;3.63;;;6.00;99.90;5.10;101240;;;;575906;245;24108;-78
2021/12/16 14:50:55;;;;;;;16.23;3.47;;;6.00;99.90;5.00;101239;;;;575913;243;24065;-77
2021/12/16 14:53:26;;;;;;;16.40;3.90;;;5.90;99.90;5.00;101248;;;;575499;249;24172;-77